createdAt,value
2019-05-05T00:00:55.872Z,4.97
2019-05-05T00:03:29.017Z,5.73
2019-05-05T00:05:59.065Z,6.03
2019-05-05T00:08:27.464Z,5.10
2019-05-05T00:11:15.359Z,5.50
2019-05-05T00:13:48.133Z,7.17
2019-05-05T00:16:20.615Z,6.13
2019-05-05T00:18:49.924Z,6.33
2019-05-05T00:21:18.424Z,5.97
2019-05-05T00:23:46.809Z,6.10
2019-05-05T00:26:15.216Z,5.03
2019-05-05T00:28:44.828Z,6.17
2019-05-05T00:31:15.019Z,5.87
2019-05-05T00:33:44.915Z,5.80
2019-05-05T00:36:14.500Z,7.10
2019-05-05T00:38:44.472Z,6.30
2019-05-05T00:41:14.872Z,5.53
2019-05-05T00:43:45.135Z,5.93
2019-05-05T00:46:16.568Z,6.13
2019-05-05T00:48:46.815Z,6.57
2019-05-05T00:51:15.251Z,6.60
2019-05-05T00:53:44.894Z,7.53
2019-05-05T00:56:14.390Z,9.30
2019-05-05T00:58:47.373Z,8.43
2019-05-05T01:01:34.308Z,9.17
2019-05-05T01:04:05.212Z,10.00
2019-05-05T01:06:35.363Z,9.67
2019-05-05T01:09:06.063Z,9.20
2019-05-05T01:11:35.572Z,8.80
2019-05-05T01:14:05.091Z,8.10
2019-05-05T01:16:35.173Z,9.40
2019-05-05T01:19:04.498Z,8.57
2019-05-05T01:21:34.918Z,7.70
2019-05-05T01:24:05.167Z,9.00
2019-05-05T01:26:35.225Z,7.77
2019-05-05T01:29:05.408Z,7.63
2019-05-05T01:31:34.659Z,6.67
2019-05-05T01:34:10.651Z,6.67
2019-05-05T01:36:39.072Z,7.50
2019-05-05T01:39:14.969Z,6.00
2019-05-05T01:41:45.299Z,4.30
2019-05-05T01:44:15.269Z,5.67
2019-05-05T01:46:44.497Z,4.70
2019-05-05T01:49:14.650Z,4.90
2019-05-05T01:51:44.755Z,5.13
2019-05-05T01:54:14.450Z,5.23
2019-05-05T01:56:44.530Z,5.30
2019-05-05T01:59:14.399Z,5.23
2019-05-05T02:01:44.510Z,5.73
2019-05-05T02:04:14.457Z,6.00
2019-05-05T02:06:44.293Z,5.63
2019-05-05T02:09:15.750Z,5.93
2019-05-05T02:11:45.333Z,5.87
2019-05-05T02:14:15.540Z,6.13
2019-05-05T02:16:45.163Z,6.70
2019-05-05T02:19:14.347Z,5.70
2019-05-05T02:21:45.195Z,6.57
2019-05-05T02:24:14.452Z,6.47
2019-05-05T02:26:43.083Z,6.00
2019-05-05T02:29:19.412Z,7.23
2019-05-05T02:32:06.549Z,8.00
2019-05-05T02:34:36.884Z,7.23
2019-05-05T02:37:05.710Z,6.70
2019-05-05T02:39:37.391Z,6.23
2019-05-05T02:42:05.761Z,6.27
2019-05-05T02:44:35.187Z,6.00
2019-05-05T02:47:11.085Z,5.63
2019-05-05T02:49:41.557Z,6.50
2019-05-05T02:52:10.914Z,5.67
2019-05-05T02:54:40.772Z,5.27
2019-05-05T02:57:11.151Z,6.07
2019-05-05T02:59:47.659Z,5.63
2019-05-05T03:02:17.930Z,6.73
2019-05-05T03:04:46.987Z,5.53
2019-05-05T03:07:17.508Z,5.70
2019-05-05T03:09:48.152Z,6.27
2019-05-05T03:12:19.623Z,5.73
2019-05-05T03:14:51.023Z,5.63
2019-05-05T03:17:20.166Z,6.63
2019-05-05T03:19:49.000Z,6.00
2019-05-05T03:22:18.009Z,6.43
2019-05-05T03:24:46.584Z,6.90
2019-05-05T03:27:15.075Z,6.80
2019-05-05T03:29:44.220Z,7.00
2019-05-05T03:32:15.911Z,7.50
2019-05-05T03:34:44.536Z,7.23
2019-05-05T03:37:14.631Z,8.20
2019-05-05T03:39:44.950Z,9.10
2019-05-05T03:42:27.001Z,10.53
2019-05-05T03:44:59.929Z,11.07
2019-05-05T03:47:28.373Z,10.10
2019-05-05T03:49:56.891Z,10.07
2019-05-05T03:52:25.736Z,10.10
2019-05-05T03:54:54.646Z,10.60
2019-05-05T03:57:24.600Z,11.63
2019-05-05T03:59:54.730Z,10.40
2019-05-05T04:02:39.837Z,10.30
2019-05-05T04:05:14.564Z,10.40
2019-05-05T04:07:44.005Z,10.60
2019-05-05T04:10:14.083Z,9.17
2019-05-05T04:12:43.498Z,8.33
2019-05-05T04:15:14.208Z,8.17
2019-05-05T04:17:44.503Z,6.63
2019-05-05T04:20:20.816Z,6.17
2019-05-05T04:22:49.235Z,6.50
2019-05-05T04:25:17.673Z,6.33
2019-05-05T04:27:46.069Z,6.27
2019-05-05T04:30:14.495Z,6.73
2019-05-05T04:32:43.944Z,6.37
2019-05-05T04:35:14.107Z,5.80
2019-05-05T04:37:43.788Z,6.40
2019-05-05T04:40:14.772Z,7.73
2019-05-05T04:42:44.100Z,7.27
2019-05-05T04:45:14.799Z,6.60
2019-05-05T04:47:48.028Z,6.37
2019-05-05T04:50:23.951Z,7.00
2019-05-05T04:52:54.124Z,7.40
2019-05-05T04:55:24.396Z,8.87
2019-05-05T04:57:54.062Z,8.90
2019-05-05T05:00:24.175Z,8.40
2019-05-05T05:02:56.996Z,9.60
2019-05-05T05:05:33.754Z,9.87
2019-05-05T05:08:03.698Z,10.47
2019-05-05T05:10:34.449Z,10.23
2019-05-05T05:13:04.496Z,8.57
2019-05-05T05:15:34.068Z,8.13
2019-05-05T05:18:18.277Z,6.60
2019-05-05T05:20:46.953Z,7.67
2019-05-05T05:23:15.480Z,7.80
2019-05-05T05:25:44.019Z,7.97
2019-05-05T05:28:14.276Z,7.90
2019-05-05T05:30:43.897Z,7.73
2019-05-05T05:33:14.756Z,7.43
2019-05-05T05:35:44.126Z,7.97
2019-05-05T05:38:14.088Z,8.10
2019-05-05T05:40:47.217Z,8.83
2019-05-05T05:43:20.335Z,9.20
2019-05-05T05:45:50.399Z,9.43
2019-05-05T05:48:26.265Z,10.00
2019-05-05T05:50:56.316Z,10.90
2019-05-05T05:53:24.731Z,11.47
2019-05-05T05:55:53.812Z,10.50
2019-05-05T05:58:24.376Z,12.60
2019-05-05T06:00:53.936Z,12.57
2019-05-05T06:03:24.407Z,12.33
2019-05-05T06:05:54.019Z,12.60
2019-05-05T06:08:24.251Z,13.13
2019-05-05T06:10:54.699Z,13.70
2019-05-05T06:13:24.205Z,14.77
2019-05-05T06:15:53.535Z,14.90
2019-05-05T06:18:24.137Z,15.43
2019-05-05T06:20:53.756Z,14.53
2019-05-05T06:23:23.992Z,15.00
2019-05-05T06:25:54.997Z,15.30
2019-05-05T06:28:23.672Z,14.50
2019-05-05T06:30:54.454Z,14.57
2019-05-05T06:33:24.126Z,14.17
2019-05-05T06:35:53.574Z,14.77
2019-05-05T06:38:24.096Z,15.43
2019-05-05T06:40:59.947Z,14.70
2019-05-05T06:43:43.991Z,14.43
2019-05-05T06:46:19.348Z,14.53
2019-05-05T06:48:47.780Z,15.00
2019-05-05T06:51:16.201Z,13.90
2019-05-05T06:53:44.687Z,14.83
2019-05-05T06:56:14.563Z,14.73
2019-05-05T06:58:44.808Z,14.90
2019-05-05T07:01:14.298Z,13.63
2019-05-05T07:03:43.862Z,14.10
2019-05-05T07:06:14.101Z,14.50
2019-05-05T07:08:43.891Z,13.50
2019-05-05T07:11:14.365Z,13.87
2019-05-05T07:13:44.347Z,13.43
2019-05-05T07:16:15.015Z,13.60
2019-05-05T07:18:44.577Z,12.10
2019-05-05T07:21:14.248Z,9.80
2019-05-05T07:23:44.600Z,8.67
2019-05-05T07:26:14.390Z,7.83
2019-05-05T07:28:44.729Z,7.00
2019-05-05T07:31:14.370Z,6.83
2019-05-05T07:33:43.789Z,5.30
2019-05-05T07:36:16.955Z,5.80
2019-05-05T07:38:47.071Z,6.43
2019-05-05T07:41:15.485Z,5.57
2019-05-05T07:43:43.885Z,6.13
2019-05-05T07:46:13.561Z,4.53
2019-05-05T07:48:44.168Z,4.80
2019-05-05T07:51:14.128Z,4.03
2019-05-05T07:53:44.227Z,4.80
2019-05-05T07:56:14.473Z,7.40
2019-05-05T07:58:43.912Z,3.90
2019-05-05T08:01:14.092Z,3.80
2019-05-05T08:03:44.627Z,5.83
2019-05-05T08:06:14.485Z,3.90
2019-05-05T08:08:44.318Z,3.97
2019-05-05T08:11:14.785Z,4.17
2019-05-05T08:13:44.309Z,5.43
2019-05-05T08:16:30.696Z,5.13
2019-05-05T08:19:09.780Z,4.13
2019-05-05T08:21:38.200Z,4.43
2019-05-05T08:24:08.285Z,5.00
2019-05-05T08:26:54.650Z,5.90
2019-05-05T08:29:37.020Z,4.57
2019-05-05T08:32:09.609Z,5.00
2019-05-05T08:34:38.034Z,6.23
2019-05-05T08:37:06.524Z,6.00
2019-05-05T08:39:35.015Z,4.90
2019-05-05T08:42:04.335Z,4.70
2019-05-05T08:44:34.264Z,4.73
2019-05-05T08:47:04.435Z,5.97
2019-05-05T08:49:34.751Z,5.57
2019-05-05T08:52:04.083Z,5.07
2019-05-05T08:54:34.407Z,4.50
2019-05-05T08:57:04.226Z,4.43
2019-05-05T08:59:33.724Z,4.53
2019-05-05T09:02:04.354Z,3.97
2019-05-05T09:04:34.034Z,3.80
2019-05-05T09:07:04.807Z,3.93
2019-05-05T09:09:33.498Z,3.70
2019-05-05T09:12:04.372Z,3.70
2019-05-05T09:14:34.406Z,3.77
2019-05-05T09:17:04.250Z,3.27
2019-05-05T09:19:34.403Z,4.00
2019-05-05T09:22:04.872Z,3.53
2019-05-05T09:24:50.723Z,3.40
2019-05-05T09:27:35.860Z,3.00
2019-05-05T09:30:07.001Z,3.90
2019-05-05T09:32:35.405Z,3.50
2019-05-05T09:35:05.915Z,4.00
2019-05-05T09:37:34.410Z,3.80
2019-05-05T09:40:04.557Z,4.17
2019-05-05T09:42:34.186Z,3.37
2019-05-05T09:45:11.421Z,3.60
2019-05-05T09:47:39.824Z,5.53
2019-05-05T09:50:08.369Z,3.77
2019-05-05T09:52:36.795Z,4.27
2019-05-05T09:55:06.833Z,4.50
2019-05-05T09:57:35.249Z,4.57
2019-05-05T10:00:07.430Z,3.50
2019-05-05T10:02:35.839Z,3.20
2019-05-05T10:05:06.775Z,3.57
2019-05-05T10:07:35.381Z,3.00
2019-05-05T10:10:04.961Z,4.90
2019-05-05T10:12:33.844Z,4.43
2019-05-05T10:15:07.196Z,4.20
2019-05-05T10:17:33.625Z,4.50
2019-05-05T10:20:03.950Z,4.03
2019-05-05T10:22:34.312Z,3.83
2019-05-05T10:25:21.123Z,4.13
2019-05-05T10:27:49.516Z,4.03
2019-05-05T10:30:17.997Z,4.17
2019-05-05T10:32:46.405Z,4.10
2019-05-05T10:35:14.966Z,4.30
2019-05-05T10:37:43.877Z,4.10
2019-05-05T10:40:16.475Z,4.40
2019-05-05T10:42:50.373Z,3.37
2019-05-05T10:45:24.411Z,3.97
2019-05-05T10:47:53.235Z,3.30
2019-05-05T10:50:21.728Z,3.73
2019-05-05T10:52:50.897Z,3.40
2019-05-05T10:55:19.720Z,3.50
2019-05-05T10:57:48.152Z,3.10
2019-05-05T11:00:19.737Z,3.00
2019-05-05T11:02:48.208Z,3.10
2019-05-05T11:05:16.974Z,3.17
2019-05-05T11:07:45.576Z,3.37
2019-05-05T11:10:17.053Z,3.43
2019-05-05T11:12:45.467Z,3.53
2019-05-05T11:15:14.337Z,3.53
2019-05-05T11:17:43.954Z,3.70
2019-05-05T11:20:14.389Z,3.60
2019-05-05T11:22:43.824Z,3.80
2019-05-05T11:25:13.908Z,3.67
2019-05-05T11:27:44.019Z,3.60
2019-05-05T11:30:16.878Z,3.40
2019-05-05T11:33:04.087Z,3.50
2019-05-05T11:35:53.934Z,3.50
2019-05-05T11:38:24.700Z,3.40
2019-05-05T11:40:54.660Z,3.07
2019-05-05T11:43:24.699Z,6.27
2019-05-05T11:45:54.427Z,3.40
2019-05-05T11:48:24.015Z,3.87
2019-05-05T11:50:53.998Z,3.60
2019-05-05T11:53:24.945Z,2.90
2019-05-05T11:55:54.834Z,3.00
2019-05-05T11:58:24.810Z,2.60
2019-05-05T12:00:54.547Z,2.50
2019-05-05T12:03:23.416Z,3.00
2019-05-05T12:05:51.815Z,2.80
2019-05-05T12:08:20.266Z,2.93
2019-05-05T12:10:56.229Z,3.07
2019-05-05T12:13:24.643Z,2.90
2019-05-05T12:16:04.547Z,3.30
2019-05-05T12:18:34.258Z,3.10
2019-05-05T12:21:05.002Z,3.30
2019-05-05T12:23:33.919Z,3.83
2019-05-05T12:26:07.473Z,3.47
2019-05-05T12:28:43.989Z,3.17
2019-05-05T12:31:16.654Z,3.07
2019-05-05T12:33:45.163Z,3.27
2019-05-05T12:36:15.092Z,3.60
2019-05-05T12:38:44.020Z,3.50
2019-05-05T12:41:14.578Z,3.33
2019-05-05T12:43:44.167Z,3.50
2019-05-05T12:46:19.882Z,3.10
2019-05-05T12:48:54.259Z,3.00
2019-05-05T12:51:23.633Z,3.00
2019-05-05T12:53:53.964Z,3.80
2019-05-05T12:56:23.849Z,3.27
2019-05-05T12:58:54.360Z,3.80
2019-05-05T13:01:24.653Z,3.63
2019-05-05T13:03:54.271Z,3.40
2019-05-05T13:06:23.978Z,3.33
2019-05-05T13:08:53.307Z,3.37
2019-05-05T13:11:23.637Z,3.30
2019-05-05T13:13:54.377Z,3.30
2019-05-05T13:16:23.115Z,4.00
2019-05-05T13:18:53.875Z,4.07
2019-05-05T13:21:34.638Z,3.30
2019-05-05T13:24:21.185Z,4.17
2019-05-05T13:26:54.217Z,4.00
2019-05-05T13:29:24.622Z,4.40
2019-05-05T13:31:54.351Z,3.63
2019-05-05T13:34:23.048Z,3.90
2019-05-05T13:36:51.482Z,3.70
2019-05-05T13:39:19.913Z,3.47
2019-05-05T13:41:48.384Z,3.40
2019-05-05T13:44:18.479Z,3.43
2019-05-05T13:46:46.893Z,4.27
2019-05-05T13:49:16.957Z,3.93
2019-05-05T13:51:45.537Z,3.90
2019-05-05T13:54:13.973Z,4.00
2019-05-05T13:56:44.207Z,3.83
2019-05-05T13:59:14.142Z,5.60
2019-05-05T14:01:44.605Z,4.00
2019-05-05T14:04:12.796Z,5.40
2019-05-05T14:06:41.235Z,4.77
2019-05-05T14:09:09.637Z,3.93
2019-05-05T14:11:38.063Z,5.27
2019-05-05T14:14:06.477Z,6.10
2019-05-05T14:16:34.898Z,5.23
2019-05-05T14:19:04.414Z,5.20
2019-05-05T14:21:33.972Z,5.10
2019-05-05T14:24:07.263Z,6.63
2019-05-05T14:26:35.697Z,5.70
2019-05-05T14:29:04.426Z,4.20
2019-05-05T14:31:34.638Z,3.40
2019-05-05T14:34:04.752Z,3.60
2019-05-05T14:36:37.285Z,3.57
2019-05-05T14:39:08.990Z,4.43
2019-05-05T14:41:37.412Z,5.57
2019-05-05T14:44:05.829Z,4.10
2019-05-05T14:46:34.264Z,3.93
2019-05-05T14:49:02.661Z,4.10
2019-05-05T14:51:31.116Z,4.10
2019-05-05T14:53:59.605Z,4.10
2019-05-05T14:56:36.114Z,3.50
2019-05-05T14:58:58.184Z,3.90
2019-05-05T15:01:26.616Z,4.10
2019-05-05T15:03:55.023Z,3.93
2019-05-05T15:06:37.388Z,3.80
2019-05-05T15:09:25.269Z,3.93
2019-05-05T15:12:14.349Z,3.37
2019-05-05T15:14:43.942Z,6.53
2019-05-05T15:17:14.170Z,3.93
2019-05-05T15:19:43.577Z,4.37
2019-05-05T15:22:14.827Z,4.20
2019-05-05T15:24:44.075Z,4.33
2019-05-05T15:27:12.464Z,3.23
2019-05-05T15:29:40.874Z,3.00
2019-05-05T15:32:09.303Z,2.93
2019-05-05T15:34:37.704Z,3.30
2019-05-05T15:37:06.192Z,3.00
2019-05-05T15:39:34.617Z,3.30
2019-05-05T15:42:04.631Z,4.00
2019-05-05T15:44:34.467Z,2.90
2019-05-05T15:47:03.133Z,5.70
2019-05-05T15:49:31.538Z,2.97
2019-05-05T15:51:59.980Z,3.30
2019-05-05T15:54:28.462Z,2.60
2019-05-05T15:57:05.348Z,2.93
2019-05-05T15:59:27.021Z,2.47
2019-05-05T16:01:55.553Z,3.33
2019-05-05T16:04:23.960Z,2.57
2019-05-05T16:06:54.083Z,3.40
2019-05-05T16:09:22.785Z,3.20
2019-05-05T16:11:51.289Z,3.53
2019-05-05T16:14:20.083Z,3.00
2019-05-05T16:16:50.139Z,2.90
2019-05-05T16:19:29.164Z,4.00
2019-05-05T16:22:03.743Z,3.13
2019-05-05T16:24:39.356Z,2.90
2019-05-05T16:27:18.650Z,4.40
2019-05-05T16:29:37.927Z,3.90
2019-05-05T16:32:17.883Z,3.03
2019-05-05T16:34:36.521Z,3.90
2019-05-05T16:37:04.959Z,3.20
2019-05-05T16:40:03.530Z,3.20
2019-05-05T16:42:35.793Z,4.37
2019-05-05T16:45:06.452Z,3.90
2019-05-05T16:47:35.261Z,3.10
2019-05-05T16:50:05.501Z,4.10
2019-05-05T16:52:35.700Z,3.57
2019-05-05T16:55:13.974Z,3.90
2019-05-05T16:57:43.729Z,3.80
2019-05-05T17:00:13.179Z,3.33
2019-05-05T17:02:41.615Z,3.57
2019-05-05T17:05:10.116Z,4.40
2019-05-05T17:07:38.542Z,3.67
2019-05-05T17:10:08.038Z,3.77
2019-05-05T17:12:36.475Z,4.30
2019-05-05T17:15:10.903Z,4.10
2019-05-05T17:17:50.147Z,4.67
2019-05-05T17:20:24.575Z,4.33
2019-05-05T17:22:54.696Z,4.27
2019-05-05T17:25:24.617Z,5.67
2019-05-05T17:27:54.622Z,3.80
2019-05-05T17:30:26.865Z,3.87
2019-05-05T17:32:54.459Z,3.83
2019-05-05T17:35:23.996Z,4.87
2019-05-05T17:37:53.837Z,4.23
2019-05-05T17:40:38.482Z,3.70
2019-05-05T17:43:25.184Z,4.00
2019-05-05T17:45:58.515Z,3.53
2019-05-05T17:48:31.660Z,4.00
2019-05-05T17:51:07.611Z,3.90
2019-05-05T17:53:54.649Z,4.07
2019-05-05T17:56:23.844Z,4.37
2019-05-05T17:58:53.803Z,4.33
2019-05-05T18:01:23.871Z,4.10
2019-05-05T18:03:54.347Z,4.67
2019-05-05T18:06:27.137Z,4.53
2019-05-05T18:08:57.191Z,4.70
2019-05-05T18:11:27.269Z,4.90
2019-05-05T18:13:57.336Z,6.07
2019-05-05T18:16:27.194Z,4.67
2019-05-05T18:18:55.649Z,4.93
2019-05-05T18:21:24.073Z,4.20
2019-05-05T18:23:54.461Z,4.27
2019-05-05T18:26:24.335Z,3.93
2019-05-05T18:28:54.093Z,4.07
2019-05-05T18:31:24.261Z,5.77
2019-05-05T18:33:54.343Z,4.13
2019-05-05T18:36:23.001Z,4.57
2019-05-05T18:38:51.437Z,4.90
2019-05-05T18:41:27.385Z,5.83
2019-05-05T18:44:06.059Z,4.33
2019-05-05T18:46:34.456Z,3.63
2019-05-05T18:49:04.393Z,3.77
2019-05-05T18:51:34.626Z,4.07
2019-05-05T18:54:04.181Z,4.87
2019-05-05T18:56:34.605Z,4.90
2019-05-05T18:59:06.484Z,4.30
2019-05-05T19:01:40.831Z,4.60
2019-05-05T19:04:10.884Z,4.20
2019-05-05T19:06:49.672Z,4.40
2019-05-05T19:09:24.726Z,4.97
2019-05-05T19:11:54.408Z,4.47
2019-05-05T19:14:24.159Z,5.07
2019-05-05T19:16:55.280Z,4.77
2019-05-05T19:19:23.697Z,4.90
2019-05-05T19:21:57.224Z,5.40
2019-05-05T19:24:25.661Z,5.03
2019-05-05T19:26:55.991Z,4.77
2019-05-05T19:29:24.354Z,5.17
2019-05-05T19:31:54.611Z,5.10
2019-05-05T19:34:24.040Z,5.10
2019-05-05T19:36:54.501Z,4.80
2019-05-05T19:39:24.270Z,5.03
2019-05-05T19:41:54.321Z,4.43
2019-05-05T19:44:25.835Z,4.73
2019-05-05T19:47:11.061Z,5.07
2019-05-05T19:49:41.165Z,4.70
2019-05-05T19:52:09.573Z,4.80
2019-05-05T19:54:38.037Z,5.13
2019-05-05T19:57:06.497Z,4.27
2019-05-05T19:59:35.825Z,5.60
2019-05-05T20:02:04.872Z,4.80
2019-05-05T20:04:33.748Z,5.50
2019-05-05T20:07:04.249Z,5.50
2019-05-05T20:09:34.087Z,6.87
2019-05-05T20:12:04.080Z,8.43
2019-05-05T20:14:34.254Z,4.90
2019-05-05T20:17:14.796Z,7.97
2019-05-05T20:19:44.225Z,12.77
2019-05-05T20:22:14.586Z,5.50
2019-05-05T20:24:44.382Z,6.53
2019-05-05T20:27:13.980Z,5.83
2019-05-05T20:29:42.711Z,5.60
2019-05-05T20:32:11.239Z,7.77
2019-05-05T20:34:50.033Z,6.30
2019-05-05T20:37:23.543Z,7.20
2019-05-05T20:39:54.330Z,6.47
2019-05-05T20:42:22.259Z,10.10
2019-05-05T20:44:50.664Z,5.50
2019-05-05T20:47:19.088Z,5.03
2019-05-05T20:49:47.487Z,6.67
2019-05-05T20:52:15.885Z,7.47
2019-05-05T20:54:44.287Z,4.63
2019-05-05T20:57:12.781Z,5.10
2019-05-05T20:59:41.173Z,5.80
2019-05-05T21:02:09.608Z,6.73
2019-05-05T21:04:37.996Z,5.70
2019-05-05T21:07:06.428Z,4.67
2019-05-05T21:09:34.886Z,5.37
2019-05-05T21:12:04.666Z,5.00
2019-05-05T21:14:35.420Z,6.10
2019-05-05T21:17:04.131Z,7.07
2019-05-05T21:19:34.514Z,6.50
2019-05-05T21:22:20.781Z,6.43
2019-05-05T21:24:49.187Z,6.27
2019-05-05T21:27:17.688Z,6.20
2019-05-05T21:29:46.093Z,6.07
2019-05-05T21:32:14.564Z,6.60
2019-05-05T21:34:44.440Z,6.90
2019-05-05T21:37:14.181Z,6.43
2019-05-05T21:39:42.717Z,6.53
2019-05-05T21:42:11.193Z,6.57
2019-05-05T21:44:39.647Z,6.70
2019-05-05T21:47:08.056Z,6.17
2019-05-05T21:49:36.456Z,7.40
2019-05-05T21:52:09.239Z,8.00
2019-05-05T21:54:48.267Z,7.20
2019-05-05T21:57:34.588Z,6.70
2019-05-05T22:00:05.808Z,6.87
2019-05-05T22:02:34.580Z,7.13
2019-05-05T22:05:04.078Z,8.07
2019-05-05T22:07:33.636Z,8.00
2019-05-05T22:10:04.315Z,7.37
2019-05-05T22:12:33.371Z,7.23
2019-05-05T22:15:04.340Z,6.67
2019-05-05T22:17:33.655Z,6.50
2019-05-05T22:20:10.522Z,6.73
2019-05-05T22:22:40.574Z,7.60
2019-05-05T22:25:09.544Z,7.17
2019-05-05T22:27:37.939Z,6.83
2019-05-05T22:30:09.907Z,7.03
2019-05-05T22:32:37.223Z,7.03
2019-05-05T22:35:07.276Z,7.30
2019-05-05T22:37:35.684Z,7.10
2019-05-05T22:40:04.874Z,8.00
2019-05-05T22:42:34.191Z,7.43
2019-05-05T22:45:04.588Z,6.60
2019-05-05T22:47:34.538Z,8.20
2019-05-05T22:50:04.416Z,11.03
2019-05-05T22:52:34.347Z,13.10
2019-05-05T22:55:04.517Z,10.07
2019-05-05T22:57:34.493Z,8.77
2019-05-05T23:00:04.910Z,16.20
2019-05-05T23:06:19.088Z,11.47
2019-05-05T23:08:47.676Z,12.00
2019-05-05T23:11:16.183Z,15.83
2019-05-05T23:13:44.651Z,18.43
2019-05-05T23:16:29.859Z,16.97
2019-05-05T23:18:59.992Z,12.43
2019-05-05T23:21:30.183Z,9.00
2019-05-05T23:24:00.351Z,16.17
2019-05-05T23:26:35.664Z,16.30
2019-05-05T23:29:03.831Z,23.77
2019-05-05T23:31:33.556Z,15.07
2019-05-05T23:34:04.015Z,16.57
2019-05-05T23:36:33.971Z,17.83
2019-05-05T23:39:04.863Z,12.13
2019-05-05T23:41:34.900Z,10.83
2019-05-05T23:44:04.665Z,8.43
2019-05-05T23:46:34.838Z,12.77
2019-05-05T23:49:04.298Z,10.53
2019-05-05T23:51:34.784Z,11.77
2019-05-05T23:54:04.273Z,8.70
2019-05-05T23:56:35.000Z,8.70
2019-05-05T23:59:04.219Z,8.87
